Ashford, Washington
Current Conditions -  °F | °C
As of 8:08 AM on Friday 31 Oct 2014 (Local Time) from KGRF Reporting Station
Light Rain Light Rain  
Wind Chill: 50°   Ceiling: 1400
Heat Index: 50°   Visibility: 5mi
Dew Point: 50°   Wind: 9mph
Humidity: 100%   Direction: 210°SSW
Pressure: 29.73"   Gusts: NA
Location:  46.76°N, 122.03°W
Report Text: KGRF 311508Z AUTO 21008KT 5SM -RA BR SCT008 BKN014 OVC024 10/10 A2973 RMK AO2 CIG 014V024
Loading
Personal Weather Stations






























Interactive Weather Map New forecast layout! Learn more

10-Day Weather Forecast

Advertisements
Track Severe Weather on mobile